Latest Coastal Weather Observations for East Sale

IDV60701

Issued at 12:31 pm EST Sunday 2 August 2015 (issued every 10 minutes, with the page automatically refreshed every 10 minutes)

About coastal observations | Map of coastal stations | Coastal observations for VIC | Marine services | Other Formats
Station Details ID: 085072 Name: EAST SALE AIRPORT Lat: -38.12 Lon: 147.13 Height: 4.6 m
Data from the previous 72 hours. | See also: Recent months at East Sale
Date/Time
EST
Temp

°C
Wind Pressure Rain
since 9am
mm
Weather Cloud Vis
km
Sea
Height
m
Swell
Dir
 
Speed
knots
Gust
knots
hPa Trend Height
m
Period
s
Dir
02/12:30pm 12.3 W 19 27 1009.7 - 0.0 - Partly cloudy 10 - - - -
02/12:00pm 11.7 W 17 23 1010.2 F 0.0 - Mostly clear 10 - - - -
02/11:30am 11.8 WNW 13 17 1010.7 - 0.0 - - 10 - - - -
02/11:00am 10.9 NW 8 11 1011.2 - 0.0 - - 10 - - - -
02/10:30am 9.8 NNW 8 10 1011.7 - 0.0 - - 10 - - - -
02/10:00am 9.5 NNW 9 10 1011.7 - 0.0 - Partly cloudy 10 - - - -
02/09:30am 8.0 NNW 8 10 1012.1 - 0.0 - Partly cloudy 10 - - - -
02/09:00am 7.7 NNW 6 8 1012.5 F 0.6 - Cloudy 10 - - - -
02/08:30am 6.9 N 6 8 1013.0 - 0.6 - Partly cloudy 10 - - - -
02/08:00am 6.2 NNW 7 8 1013.4 - 0.6 - Partly cloudy 10 - - - -
02/07:30am 6.0 NW 5 5 1013.3 - 0.4 - Partly cloudy 10 - - - -
02/07:00am 6.0 NNW 5 7 1013.2 - 0.2 - Cloudy 10 - - - -
02/06:30am 5.7 WSW 3 4 1013.1 - 0.2 - Partly cloudy 10 - - - -
02/06:00am 5.7 SSW 2 4 1012.8 F 0.2 - Cloudy 10 - - - -
02/05:30am 5.9 CALM 0 0 1012.8 - 0.2 - Cloudy 10 - - - -
02/05:00am 5.6 CALM 0 0 1013.0 - 0.2 - Cloudy 10 - - - -
02/04:30am 6.1 CALM 0 0 1013.1 - 0.2 - Partly cloudy 10 - - - -
02/04:00am 6.1 CALM 0 0 1013.4 - 0.2 - Partly cloudy 10 - - - -
02/03:30am 6.1 CALM 0 0 1014.2 - 0.2 - Partly cloudy 10 - - - -
02/03:00am 5.8 CALM 0 0 1014.1 F 0.2 - Mostly cloudy 10 - - - -
02/02:30am 6.0 CALM 0 0 1014.7 - 0.2 - Partly cloudy 10 - - - -
02/02:00am 6.2 SW 2 3 1015.0 - 0.2 - Partly cloudy 10 - - - -
02/01:30am 6.3 SSW 2 4 1015.3 - 0.2 - Partly cloudy 10 - - - -
02/01:00am 6.6 W 2 4 1015.8 - 0.2 - Partly cloudy 10 - - - -
02/12:30am 6.5 N 4 5 1015.2 - 0.2 - Partly cloudy 10 - - - -
02/12:00am 7.0 NNW 4 5 1015.7 F 0.2 - Cloudy 10 - - - -
 
Date/Time
EST
Temp

°C
Wind Pressure Rain
since 9am
mm
Weather Cloud Vis
km
Sea
Height
m
Swell
Dir
 
Speed
knots
Gust
knots
hPa Trend Height
m
Period
s
Dir
01/11:30pm 7.3 N 4 5 1015.6 - 0.2 - Cloudy 10 - - - -
01/11:00pm 7.4 WNW 4 5 1015.9 - 0.2 - Cloudy 10 - - - -
01/10:30pm 7.3 N 3 4 1015.8 - 0.2 - Cloudy 10 - - - -
01/10:00pm 7.5 NNW 5 6 1016.3 - 0.2 - Cloudy 10 - - - -
01/09:30pm 7.7 N 4 5 1016.2 - 0.2 - Cloudy 10 - - - -
01/09:00pm 7.7 NNE 3 4 1016.0 F 0.2 - Cloudy 10 - - - -
01/08:30pm 8.3 N 3 4 1016.4 - 0.2 - Cloudy 10 - - - -
01/08:00pm 8.4 WNW 2 4 1016.2 - 0.2 - Cloudy 10 - - - -
01/07:30pm 8.5 NW 4 5 1016.4 - 0.2 - Cloudy 10 - - - -
01/07:00pm 8.6 NNW 3 4 1016.2 - 0.2 - Cloudy 10 - - - -
01/06:30pm 9.0 W 5 7 1015.6 - 0.2 - Cloudy 10 - - - -
01/06:00pm 9.0 WNW 6 8 1015.3 R 0.2 - Cloudy 10 - - - -
01/05:30pm 9.4 WSW 8 10 1014.7 - 0.2 - Cloudy 10 - - - -
01/05:00pm 9.7 W 7 10 1014.6 - 0.2 - Cloudy 10 - - - -
01/04:30pm 9.9 WSW 9 13 1014.4 - 0.2 - Cloudy 10 - - - -
01/04:00pm 10.2 WSW 10 15 1014.3 - 0.2 - Cloudy 10 - - - -
01/03:30pm 10.1 WSW 10 14 1013.9 - 0.2 - Cloudy 10 - - - -
01/03:00pm 10.2 WSW 11 18 1013.6 R 0.2 - Cloudy 10 - - - -
01/02:30pm 10.3 WSW 13 19 1013.1 - 0.2 - Cloudy 10 - - - -
01/02:00pm 9.9 WSW 12 19 1013.1 - 0.2 - Partly cloudy 10 - - - -
01/01:30pm 9.6 WSW 17 24 1013.3 - 0.2 - Cloudy 10 - - - -
01/01:00pm 10.1 WSW 12 17 1013.0 - 0.2 - Partly cloudy 10 - - - -
01/12:30pm 10.0 WSW 15 24 1013.0 - 0.2 - Cloudy 10 - - - -
01/12:00pm 10.4 WSW 19 25 1012.9 R 0.2 - Cloudy 10 - - - -
01/11:30am 10.6 W 18 27 1012.5 - 0.2 - Partly cloudy 10 - - - -
01/11:00am 10.6 WSW 17 29 1012.2 - 0.2 - Partly cloudy 10 - - - -
01/10:46am 11.7 WSW 17 29 1011.8 - 0.2 - Partly cloudy 10 - - - -
01/10:30am 12.1 WSW 13 18 1011.5 - 0.2 - Partly cloudy 10 - - - -
01/10:00am 12.0 WSW 11 15 1010.5 - 0.0 - Partly cloudy 10 - - - -
01/09:30am 12.2 W 12 16 1009.9 - 0.0 - Partly cloudy 10 - - - -
01/09:00am 13.4 W 14 20 1009.2 R 0.0 - Cloudy 10 - - - -
01/08:30am 13.3 W 11 14 1008.7 - 0.0 - Partly cloudy 10 - - - -
01/08:00am 13.4 W 11 14 1008.2 - 0.0 - Partly cloudy 10 - - - -
01/07:30am 12.4 WNW 13 19 1007.7 - 0.0 - Cloudy 10 - - - -
01/07:00am 8.0 ESE 3 5 1007.2 - 0.0 - Cloudy 10 - - - -
01/06:30am 7.8 SSE 5 7 1007.1 - 0.0 - Cloudy 10 - - - -
01/06:00am 6.5 ENE 5 6 1007.3 F 0.0 - Mostly cloudy 10 - - - -
01/05:30am 5.3 SE 3 4 1007.6 - 0.0 - Partly cloudy 10 - - - -
01/05:00am 5.9 NNE 4 7 1008.2 - 0.0 - Partly cloudy 10 - - - -
01/04:30am 4.4 ENE 6 7 1008.4 - 0.0 - Partly cloudy 10 - - - -
01/04:00am 4.3 N 6 8 1008.9 - 0.0 - - 10 - - - -
01/03:30am 3.4 NE 8 10 1009.9 - 0.0 - - 10 - - - -
01/03:00am 3.0 NE 8 11 1010.9 F 0.0 - Mostly clear 10 - - - -
01/02:30am 4.6 WSW 5 9 1011.8 - 0.0 - - 10 - - - -
01/02:00am 4.9 WSW 10 12 1012.7 - 0.0 - - 10 - - - -
01/01:30am 4.4 WNW 8 11 1013.1 - 0.0 - - 10 - - - -
01/01:00am 2.6 WSW 6 7 1013.2 - 0.0 - - 10 - - - -
01/12:30am 1.9 WNW 6 8 1013.1 - 0.0 - - 10 - - - -
01/12:00am 1.5 WNW 3 5 1013.0 F 0.0 - Mostly cloudy 10 - - - -
 
Date/Time
EST
Temp

°C
Wind Pressure Rain
since 9am
mm
Weather Cloud Vis
km
Sea
Height
m
Swell
Dir
 
Speed
knots
Gust
knots
hPa Trend Height
m
Period
s
Dir
31/11:30pm 1.4 SW 3 4 1013.3 - 0.0 - - 10 - - - -
31/11:00pm 3.5 SSE 3 6 1013.6 - 0.0 - - 10 - - - -
31/10:30pm 3.2 CALM 0 2 1014.0 - 0.0 - - 10 - - - -
31/10:00pm 4.2 NE 4 5 1014.3 - 0.0 - - 10 - - - -
31/09:30pm 4.0 ENE 5 6 1015.0 - 0.0 - - 10 - - - -
31/09:00pm 4.5 ENE 7 8 1015.6 F 0.0 - Mostly cloudy 8 - - - -
31/08:30pm 5.4 ENE 2 4 1016.1 - 0.0 - - 10 - - - -
31/08:00pm 5.1 ENE 3 5 1016.5 - 0.0 - - 10 - - - -
31/07:30pm 5.7 NE 6 8 1016.9 - 0.0 - - 10 - - - -
31/07:00pm 6.1 NE 6 7 1016.9 - 0.0 - - 10 - - - -
31/06:30pm 6.0 ENE 6 7 1016.6 - 0.0 - - 10 - - - -
31/06:00pm 6.3 E 8 9 1016.1 F 0.0 - - 10 - - - -
31/05:30pm 7.2 E 6 6 1016.4 - 0.0 - - 10 - - - -
31/05:00pm 9.5 ENE 7 8 1016.4 - 0.0 - - 10 - - - -
31/04:30pm 11.2 E 8 10 1016.6 - 0.0 - - 10 - - - -
31/04:00pm 12.8 N 4 5 1016.9 - 0.0 - - 10 - - - -
31/03:30pm 13.3 NE 3 5 1017.2 - 0.0 - - 10 - - - -
31/03:00pm 13.1 WSW 3 5 1017.5 F 0.0 - - 10 - - - -
31/02:30pm 12.6 W 5 7 1017.6 - 0.0 - - 10 - - - -
31/02:00pm 13.1 NNW 7 11 1018.2 - 0.0 - - 10 - - - -
31/01:30pm 12.5 WNW 6 12 1018.8 - 0.0 - - 10 - - - -
31/01:00pm 13.0 W 7 13 1019.2 - 0.0 - - 10 - - - -
31/12:30pm 12.7 WSW 9 14 1020.0 - 0.0 - Mostly clear 10 - - - -
31/12:00pm 12.1 W 9 13 1020.3 S 0.0 - - 10 - - - -
31/11:30am 11.7 WSW 7 9 1020.7 - 0.0 - Mostly clear 10 - - - -
31/11:00am 10.9 W 9 11 1021.3 - 0.0 - Mostly clear 10 - - - -
31/10:30am 10.3 NNW 5 7 1021.3 - 0.0 - Mostly clear 10 - - - -
31/10:00am 10.1 WNW 8 10 1021.4 - 0.0 - Mostly clear 10 - - - -
31/09:30am 8.8 W 8 11 1021.3 - 0.0 - Mostly clear 10 - - - -
31/09:00am 8.9 NW 4 5 1021.0 R 0.0 - Mostly clear 10 - - - -
31/08:30am 7.3 NW 4 5 1020.9 - 0.0 - Mostly clear 10 - - - -
31/08:00am 5.2 NNW 4 6 1020.6 - 0.0 - Mostly clear 10 - - - -
31/07:30am 4.5 WNW 5 6 1020.3 - 0.0 - Mostly clear 10 - - - -
31/07:00am 4.5 W 6 7 1020.0 - 0.0 - - 10 - - - -
31/06:30am 5.0 W 6 8 1019.6 - 0.0 - - 10 - - - -
31/06:00am 5.3 W 6 8 1019.2 R 0.0 - Mostly clear 10 - - - -
31/05:30am 6.1 WNW 6 7 1019.1 - 0.0 - Partly cloudy 10 - - - -
31/05:00am 6.7 W 9 10 1018.7 - 0.0 - - 10 - - - -
31/04:30am 6.5 W 7 10 1018.4 - 0.0 - - 10 - - - -
31/04:00am 6.9 W 7 11 1018.1 - 0.0 - - 10 - - - -
31/03:30am 6.9 W 8 10 1017.9 - 0.0 - - 10 - - - -
31/03:00am 7.7 WSW 9 13 1018.0 R 0.0 - - 10 - - - -
31/02:30am 8.5 W 11 14 1017.6 - 0.0 - Partly cloudy 10 - - - -
31/02:00am 8.8 NW 5 6 1017.8 - 0.0 - Partly cloudy 10 - - - -
31/01:30am 9.1 WSW 6 9 1017.7 - 0.0 - Partly cloudy 10 - - - -
31/01:00am 9.4 W 13 19 1017.0 - 0.0 - Cloudy 10 - - - -
31/12:30am 10.3 W 19 26 1016.6 - 0.0 - Cloudy 10 - - - -
31/12:00am 10.5 W 24 33 1016.2 R 0.0 - Cloudy 10 - - - -
 
Date/Time
EST
Temp

°C
Wind Pressure Rain
since 9am
mm
Weather Cloud Vis
km
Sea
Height
m
Swell
Dir
 
Speed
knots
Gust
knots
hPa Trend Height
m
Period
s
Dir
30/11:38pm 10.9 W 22 33 1016.3 - 0.0 - Cloudy 10 - - - -
30/11:30pm 11.3 W 14 30 1016.3 - 0.0 - Partly cloudy 10 - - - -
30/11:29pm 11.3 W 13 30 1016.2 - 0.0 - Partly cloudy 10 - - - -
30/11:00pm 11.0 WNW 10 13 1015.4 - 0.0 - Partly cloudy 10 - - - -
30/10:30pm 11.2 NW 16 23 1014.6 - 0.0 - Cloudy 10 - - - -
30/10:00pm 11.4 NW 15 20 1014.1 - 0.0 - Cloudy 10 - - - -
30/09:30pm 11.9 NW 16 20 1013.7 - 0.0 - Cloudy 10 - - - -
30/09:00pm 12.2 WNW 20 25 1013.2 R 0.0 - Mostly cloudy 10 - - - -
30/08:30pm 12.3 NW 17 24 1012.9 - 0.0 - Cloudy 10 - - - -
30/08:00pm 12.1 NW 18 27 1012.5 - 0.0 - Partly cloudy 10 - - - -
30/07:47pm 12.4 NW 20 30 1012.3 - 0.0 - Partly cloudy 10 - - - -
30/07:30pm 12.6 NW 21 30 1012.0 - 0.0 - Partly cloudy 10 - - - -
30/07:29pm 12.6 NW 21 30 1011.9 - 0.0 - Partly cloudy 10 - - - -
30/07:10pm 12.7 WNW 9 20 1012.0 - 0.0 - Partly cloudy 10 - - - -
30/07:00pm 12.4 NNW 4 6 1012.2 - 0.0 - Partly cloudy 10 - - - -
30/06:30pm 11.8 NNE 3 4 1011.7 - 0.0 - Partly cloudy 10 - - - -
30/06:00pm 13.0 NNE 3 8 1011.7 F 0.0 - Mostly cloudy 10 - - - -
30/05:30pm 12.8 NW 13 18 1011.6 - 0.0 - Partly cloudy 10 - - - -
30/05:00pm 12.5 NW 13 18 1012.3 - 0.0 - Cloudy 10 - - - -
30/04:30pm 12.4 WNW 7 11 1013.0 - 0.0 - Cloudy 10 - - - -
30/04:00pm 11.9 N 6 13 1012.5 - 0.0 - Partly cloudy 10 - - - -
30/03:30pm 12.1 NW 10 14 1013.1 - 0.0 Showers Partly cloudy 10 - - - -
30/03:00pm 12.5 NNW 4 6 1013.6 F 0.0 - Cloudy 10 - - - -
30/02:30pm 12.2 NNW 4 5 1013.8 - 0.0 - Partly cloudy 10 - - - -
30/02:00pm 12.8 NW 3 4 1014.7 - 0.0 - Partly cloudy 10 - - - -
30/01:30pm 12.6 NNE 5 7 1015.1 - 0.0 - - 10 - - - -
30/01:00pm 12.6 NNE 6 8 1015.9 - 0.0 - - 10 - - - -

Other Formats:

Comma delimited format used in spreadsheet applications
http://www.bom.gov.au/fwo/IDV60701/IDV60701.94907.axf

JavaScript Object Notation format (JSON) in row-major order
http://www.bom.gov.au/fwo/IDV60701/IDV60701.94907.json